No 31 Takemaru — JG5731 — position and weather

sailwx.info

Track history (hours):
 
Tides and Currents Weather Stations Pressure Air Temp Water Temp Dewpoint Dewpoint Depression Visibility Wind Speed Wind Dir Waves Ship Positions

No 31 Takemaru

Last reported at 2018-Apr-19 19:00 UTC. Time now 2018-Apr-19 19:07 UTC.
Position N 34°39' E 135°28'.

Length 31 m; draft 2.5 m.

Type: Tug. MMSI: 431000439.

Date/timePositionNaut miles runAvg speedWind from/ knotsBaromVisibWave heightAir tempDewpointWater temp
2018-Apr-19 19:00N 34°39' E 135°28'0 0.0
2018-Apr-19 18:31N 34°39' E 135°28'0 0.0
2018-Apr-19 18:00N 34°39' E 135°28'0 0.0
2018-Apr-19 17:30N 34°39' E 135°28'0 0.0
2018-Apr-19 17:01N 34°39' E 135°28'0 0.0
2018-Apr-19 16:31N 34°39' E 135°28'0 0.0
2018-Apr-19 16:00N 34°39' E 135°28'0 0.0
2018-Apr-19 15:30N 34°39' E 135°28'0 0.0
2018-Apr-19 15:00N 34°39' E 135°28'0 0.0
2018-Apr-19 14:31N 34°39' E 135°28'0 0.0
2018-Apr-19 14:00N 34°39' E 135°28'0 0.0
2018-Apr-19 13:31N 34°39' E 135°28'0 0.0
2018-Apr-19 13:00N 34°39' E 135°28'0 0.0
2018-Apr-19 12:30N 34°39' E 135°28'0 0.0
2018-Apr-19 12:01N 34°39' E 135°28'0 0.0
2018-Apr-19 11:31N 34°39' E 135°28'0 0.0
2018-Apr-19 11:00N 34°39' E 135°28'0 0.0
2018-Apr-19 10:30N 34°39' E 135°28'0 0.0
2018-Apr-19 10:00N 34°39' E 135°28'0 0.0
2018-Apr-19 09:30N 34°39' E 135°28'0 0.0
2018-Apr-19 09:00N 34°39' E 135°28'0 0.0
2018-Apr-19 08:30N 34°39' E 135°28'0 0.0
2018-Apr-19 08:00N 34°39' E 135°28'0 0.0
2018-Apr-19 07:31N 34°39' E 135°28'0 0.0
2018-Apr-19 07:00N 34°39' E 135°28'1 1.2
2018-Apr-19 06:31N 34°39' E 135°27'3 5.1
2018-Apr-19 06:01N 34°39' E 135°24'1 2.4
2018-Apr-19 05:30N 34°38' E 135°23'4 7.3
2018-Apr-19 05:00N 34°39' E 135°28'0 0.4
2018-Apr-19 04:30N 34°39' E 135°28'0 0.0
2018-Apr-19 04:00N 34°39' E 135°28'0 0.0
2018-Apr-19 03:30N 34°39' E 135°28'0 0.0
2018-Apr-19 03:01N 34°39' E 135°28'0 0.0
2018-Apr-19 02:30N 34°39' E 135°28'0 0.0
2018-Apr-19 02:01N 34°39' E 135°28'0 0.0
2018-Apr-19 01:30N 34°39' E 135°28'0 0.0
2018-Apr-19 01:01N 34°39' E 135°28'0 0.0
2018-Apr-19 00:30N 34°39' E 135°28'0 0.0
2018-Apr-19 00:00N 34°39' E 135°28'0 0.0
2018-Apr-18 23:30N 34°39' E 135°28'0 0.0
2018-Apr-18 23:00N 34°39' E 135°28'0 0.0
2018-Apr-18 22:30N 34°39' E 135°28'0 0.0
2018-Apr-18 22:00N 34°39' E 135°28'0 0.0
2018-Apr-18 21:30N 34°39' E 135°28'0 0.0
2018-Apr-18 21:01N 34°39' E 135°28'0 0.0
2018-Apr-18 20:31N 34°39' E 135°28'0 0.0
2018-Apr-18 20:01N 34°39' E 135°28'0 0.0
2018-Apr-18 19:30N 34°39' E 135°28'0 0.0
2018-Apr-18 19:01N 34°39' E 135°28'0 0.0
2018-Apr-18 18:31N 34°39' E 135°28'0 0.0
2018-Apr-18 18:00N 34°39' E 135°28'0 0.0
2018-Apr-18 17:30N 34°39' E 135°28'0 0.0
2018-Apr-18 17:00N 34°39' E 135°28'0 0.0
2018-Apr-18 16:29N 34°39' E 135°28'0 0.0
2018-Apr-18 16:00N 34°39' E 135°28'0 0.0
2018-Apr-18 15:31N 34°39' E 135°28'0 0.0
2018-Apr-18 15:00N 34°39' E 135°28'0 0.0
2018-Apr-18 14:31N 34°39' E 135°28'0 0.0
2018-Apr-18 14:00N 34°39' E 135°28'0 0.0
2018-Apr-18 13:30N 34°39' E 135°28'0 0.0
2018-Apr-18 13:01N 34°39' E 135°28'0 0.0
2018-Apr-18 12:30N 34°39' E 135°28'0 0.0
2018-Apr-18 12:01N 34°39' E 135°28'0 0.0
2018-Apr-18 11:30N 34°39' E 135°28'0 0.0
2018-Apr-18 11:01N 34°39' E 135°28'2 4.2
2018-Apr-18 10:31N 34°39' E 135°26'0 0.1
2018-Apr-18 10:00N 34°39' E 135°25'2 3.1
2018-Apr-18 09:30N 34°39' E 135°27'1 1.3
2018-Apr-18 09:00N 34°39' E 135°28'0 0.0
2018-Apr-18 08:30N 34°39' E 135°28'0 0.0
2018-Apr-18 08:00N 34°39' E 135°28'0 0.0
2018-Apr-18 07:31N 34°39' E 135°28'0 0.0
2018-Apr-18 07:01N 34°39' E 135°28'0 0.0
2018-Apr-18 06:30N 34°39' E 135°28'0 0.0
2018-Apr-18 06:01N 34°39' E 135°28'0 0.0
2018-Apr-18 05:30N 34°39' E 135°28'0 0.0
2018-Apr-18 05:00N 34°39' E 135°28'0 0.0
2018-Apr-18 04:30N 34°39' E 135°28'0 0.0
2018-Apr-18 04:01N 34°39' E 135°28'0 0.0
2018-Apr-18 03:31N 34°39' E 135°28'0 0.0
2018-Apr-18 03:00N 34°39' E 135°28'2 4.7
2018-Apr-18 02:31N 34°39' E 135°25'5 9.8
2018-Apr-18 02:00N 34°34' E 135°24'2 3.3
2018-Apr-18 01:30N 34°33' E 135°26'0 0.3
2018-Apr-18 01:00N 34°33' E 135°26'3 7.0
2018-Apr-18 00:30N 34°36' E 135°23'4 8.9
2018-Apr-18 00:00N 34°39' E 135°28'0 0.6
2018-Apr-17 23:31N 34°39' E 135°28'0 0.0
2018-Apr-17 23:01N 34°39' E 135°28'0 0.0
2018-Apr-17 22:30N 34°39' E 135°28'0 0.0
2018-Apr-17 22:01N 34°39' E 135°28'0 0.0
2018-Apr-17 21:31N 34°39' E 135°28'0 0.0
2018-Apr-17 21:00N 34°39' E 135°28'0 0.0
2018-Apr-17 20:29N 34°39' E 135°28'0 0.0
2018-Apr-17 20:01N 34°39' E 135°28'0 0.0
2018-Apr-17 19:30N 34°39' E 135°28'0 0.0
2018-Apr-17 19:00N 34°39' E 135°28'0 0.0
2018-Apr-17 18:30N 34°39' E 135°28'0 0.0
2018-Apr-17 18:01N 34°39' E 135°28'0 0.0
2018-Apr-17 17:30N 34°39' E 135°28'0 0.0
2018-Apr-17 17:00N 34°39' E 135°28'0 0.0
2018-Apr-17 16:31N 34°39' E 135°28'0 0.0
2018-Apr-17 16:01N 34°39' E 135°28'0 0.0
2018-Apr-17 15:30N 34°39' E 135°28'0 0.0
2018-Apr-17 15:01N 34°39' E 135°28'0 0.0
2018-Apr-17 14:31N 34°39' E 135°28'0 0.0
2018-Apr-17 14:01N 34°39' E 135°28'0 0.0
2018-Apr-17 13:30N 34°39' E 135°28'0 0.0
2018-Apr-17 13:00N 34°39' E 135°28'0 0.0
2018-Apr-17 12:30N 34°39' E 135°28'0 0.0
2018-Apr-17 12:00N 34°39' E 135°28'0 0.0
2018-Apr-17 11:30N 34°39' E 135°28'0 0.0
2018-Apr-17 11:01N 34°39' E 135°28'0 0.0
2018-Apr-17 10:30N 34°39' E 135°28'0 0.0
2018-Apr-17 10:00N 34°39' E 135°28'0 0.0
2018-Apr-17 09:31N 34°39' E 135°28'0 0.0
2018-Apr-17 09:00N 34°39' E 135°28'0 0.0
2018-Apr-17 08:30N 34°39' E 135°28'0 0.0
2018-Apr-17 08:00N 34°39' E 135°28'0 0.0
2018-Apr-17 07:30N 34°39' E 135°28'0 0.0
2018-Apr-17 07:00N 34°39' E 135°28'0 0.0
2018-Apr-17 06:30N 34°39' E 135°28'0 0.0
2018-Apr-17 06:01N 34°39' E 135°28'0 0.0
2018-Apr-17 05:31N 34°39' E 135°28'0 0.0
2018-Apr-17 05:00N 34°39' E 135°28'0 0.0
2018-Apr-17 04:31N 34°39' E 135°28'0 0.0
2018-Apr-17 04:00N 34°39' E 135°28'0 0.0
2018-Apr-17 03:30N 34°39' E 135°28'0 0.0
2018-Apr-17 03:01N 34°39' E 135°28'0 0.0
2018-Apr-17 02:31N 34°39' E 135°28'0 0.0
2018-Apr-17 02:00N 34°39' E 135°28'0 0.0
2018-Apr-17 01:30N 34°39' E 135°28'0 0.0
2018-Apr-17 01:00N 34°39' E 135°28'0 0.0
2018-Apr-17 00:30N 34°39' E 135°28'0 0.0
2018-Apr-17 00:00N 34°39' E 135°28'0 0.0
2018-Apr-16 23:31N 34°39' E 135°28'0 0.0
2018-Apr-16 23:00N 34°39' E 135°28'0 0.0
2018-Apr-16 22:30N 34°39' E 135°28'0 0.0
2018-Apr-16 22:01N 34°39' E 135°28'0 0.0
2018-Apr-16 21:30N 34°39' E 135°28'0 0.0
2018-Apr-16 21:01N 34°39' E 135°28'0 0.0
2018-Apr-16 20:31N 34°39' E 135°28'0 0.0
2018-Apr-16 20:00N 34°39' E 135°28'0 0.0
2018-Apr-16 19:30N 34°39' E 135°28'0 0.0
2018-Apr-16 19:01N 34°39' E 135°28'0 0.0
2018-Apr-16 18:30N 34°39' E 135°28'0 0.0
2018-Apr-16 18:01N 34°39' E 135°28'0 0.0
2018-Apr-16 17:30N 34°39' E 135°28'0 0.0
2018-Apr-16 17:01N 34°39' E 135°28'0 0.0
2018-Apr-16 16:30N 34°39' E 135°28'0 0.0
2018-Apr-16 16:00N 34°39' E 135°28'0 0.0
2018-Apr-16 15:30N 34°39' E 135°28'0 0.0
2018-Apr-16 15:00N 34°39' E 135°28'0 0.0
2018-Apr-16 14:31N 34°39' E 135°28'0 0.0
2018-Apr-16 14:01N 34°39' E 135°28'0 0.0
2018-Apr-16 13:31N 34°39' E 135°28'0 0.0
2018-Apr-16 13:01N 34°39' E 135°28'0 0.0
2018-Apr-16 12:30N 34°39' E 135°28'0 0.0
2018-Apr-16 12:01N 34°39' E 135°28'0 0.0
2018-Apr-16 11:30N 34°39' E 135°28'0 0.0
2018-Apr-16 11:01N 34°39' E 135°28'0 0.0
2018-Apr-16 10:31N 34°39' E 135°28'0 0.0
2018-Apr-16 10:01N 34°39' E 135°28'0 0.0
2018-Apr-16 09:30N 34°39' E 135°28'0 0.0
2018-Apr-16 09:00N 34°39' E 135°28'0 0.0
2018-Apr-16 08:31N 34°39' E 135°28'0 0.0
2018-Apr-16 08:00N 34°39' E 135°28'0 0.0
2018-Apr-16 07:30N 34°39' E 135°28'0 0.0
2018-Apr-16 07:01N 34°39' E 135°28'0 0.0
2018-Apr-16 06:30N 34°39' E 135°28'0 0.0
2018-Apr-16 06:00N 34°39' E 135°28'0 0.0
2018-Apr-16 05:31N 34°39' E 135°28'0 0.0
2018-Apr-16 05:01N 34°39' E 135°28'0 0.0
2018-Apr-16 04:31N 34°39' E 135°28'0 0.0
2018-Apr-16 04:00N 34°39' E 135°28'0 0.0
2018-Apr-16 03:30N 34°39' E 135°28'0 0.0
2018-Apr-16 03:01N 34°39' E 135°28'0 0.0
2018-Apr-16 02:30N 34°39' E 135°28'0 0.0
2018-Apr-16 02:00N 34°39' E 135°28'0 0.0
2018-Apr-16 01:30N 34°39' E 135°28'0 0.0
2018-Apr-16 01:00N 34°39' E 135°28'4 7.2
2018-Apr-16 00:30N 34°38' E 135°24'611.7
2018-Apr-16 00:01N 34°33' E 135°25'0 0.2
2018-Apr-15 23:30N 34°33' E 135°25'0 0.4
2018-Apr-15 23:00N 34°33' E 135°25'1 2.0
2018-Apr-15 22:30N 34°33' E 135°24'4 7.7
2018-Apr-15 22:01N 34°34' E 135°20'0 0.3
2018-Apr-15 21:30N 34°34' E 135°20'3 5.5
2018-Apr-15 21:00N 34°35' E 135°23'1 1.6
2018-Apr-15 20:30N 34°36' E 135°24'0 0.0
2018-Apr-15 20:00N 34°36' E 135°24'0 0.0
2018-Apr-15 19:30N 34°36' E 135°24'0 0.0
2018-Apr-15 19:01N 34°36' E 135°24'0 0.0
2018-Apr-15 18:30N 34°36' E 135°24'0 0.0
2018-Apr-15 18:00N 34°36' E 135°24'0 0.0
2018-Apr-15 17:30N 34°36' E 135°24'0 0.0
2018-Apr-15 17:00N 34°36' E 135°24'0 0.0
2018-Apr-15 16:30N 34°36' E 135°24'0 0.0
2018-Apr-15 16:00N 34°36' E 135°24'0 0.0
2018-Apr-15 15:31N 34°36' E 135°24'0 0.0
2018-Apr-15 15:00N 34°36' E 135°24'2 4.3
2018-Apr-15 14:30N 34°34' E 135°26'1 1.1
2018-Apr-15 14:01N 34°35' E 135°25'4 7.8
2018-Apr-15 13:31N 34°39' E 135°25'2 4.5
2018-Apr-15 13:00N 34°39' E 135°28'0 0.0
2018-Apr-15 12:30N 34°39' E 135°28'0 0.0
2018-Apr-15 12:01N 34°39' E 135°28'0 0.0
2018-Apr-15 11:30N 34°39' E 135°28'0 0.0
2018-Apr-15 11:01N 34°39' E 135°28'0 0.0
2018-Apr-15 10:30N 34°39' E 135°28'0 0.0
2018-Apr-15 10:00N 34°39' E 135°28'0 0.0
2018-Apr-15 09:30N 34°39' E 135°28'0 0.0
2018-Apr-15 08:59N 34°39' E 135°28'0 0.0
2018-Apr-15 08:30N 34°39' E 135°28'4 8.4
2018-Apr-15 08:00N 34°37' E 135°24'1 1.3
2018-Apr-15 07:31N 34°36' E 135°24'1 2.9
2018-Apr-15 07:00N 34°34' E 135°23'2 4.8
2018-Apr-15 06:30N 34°33' E 135°26'0 0.1
2018-Apr-15 06:01N 34°34' E 135°26'4 7.9
2018-Apr-15 05:31N 34°37' E 135°24'4 7.6
2018-Apr-15 04:58N 34°39' E 135°28'0 0.0
2018-Apr-15 04:31N 34°39' E 135°28'0 0.0
2018-Apr-15 04:00N 34°39' E 135°28'0 0.0
2018-Apr-15 03:30N 34°39' E 135°28'0 0.0
2018-Apr-15 03:00N 34°39' E 135°28'0 0.0
2018-Apr-15 02:30N 34°39' E 135°28'0 0.0
2018-Apr-15 02:00N 34°39' E 135°28'0 0.0
2018-Apr-15 01:30N 34°39' E 135°28'0 0.0
2018-Apr-15 01:01N 34°39' E 135°28'0 0.0
2018-Apr-15 00:31N 34°39' E 135°28'0 0.0
2018-Apr-15 00:00N 34°39' E 135°28'0 0.0
2018-Apr-14 23:31N 34°39' E 135°28'0 0.0
2018-Apr-14 23:01N 34°39' E 135°28'0 0.0
2018-Apr-14 22:30N 34°39' E 135°28'0 0.0
2018-Apr-14 22:01N 34°39' E 135°28'0 0.0
2018-Apr-14 21:30N 34°39' E 135°28'0 0.0
2018-Apr-14 21:00N 34°39' E 135°28'0 0.0
2018-Apr-14 20:30N 34°39' E 135°28'0 0.0
2018-Apr-14 19:59N 34°39' E 135°28'0 0.0
2018-Apr-14 19:31N 34°39' E 135°28'0 0.0
2018-Apr-14 19:00N 34°39' E 135°28'0 0.0
2018-Apr-14 18:30N 34°39' E 135°28'0 0.0
2018-Apr-14 18:00N 34°39' E 135°28'0 0.0
2018-Apr-14 17:31N 34°39' E 135°28'0 0.0
2018-Apr-14 17:00N 34°39' E 135°28'0 0.0
2018-Apr-14 16:31N 34°39' E 135°28'0 0.0
2018-Apr-14 16:00N 34°39' E 135°28'0 0.0
2018-Apr-14 15:30N 34°39' E 135°28'0 0.0
2018-Apr-14 15:00N 34°39' E 135°28'0 0.0
2018-Apr-14 14:28N 34°39' E 135°28'0 0.0
2018-Apr-14 14:00N 34°39' E 135°28'0 0.0
2018-Apr-14 13:30N 34°39' E 135°28'0 0.0
2018-Apr-14 13:01N 34°39' E 135°28'0 0.0
2018-Apr-14 12:30N 34°39' E 135°28'0 0.0
2018-Apr-14 12:00N 34°39' E 135°28'0 0.0
2018-Apr-14 11:30N 34°39' E 135°28'0 0.0
2018-Apr-14 11:00N 34°39' E 135°28'0 0.0
2018-Apr-14 10:30N 34°39' E 135°28'0 0.0
2018-Apr-14 10:01N 34°39' E 135°28'0 0.0
2018-Apr-14 09:31N 34°39' E 135°28'0 0.0
2018-Apr-14 09:00N 34°39' E 135°28'0 0.0
2018-Apr-14 08:30N 34°39' E 135°28'0 0.0
2018-Apr-14 08:00N 34°39' E 135°28'0 0.0
2018-Apr-14 07:30N 34°39' E 135°28'0 0.0
2018-Apr-14 07:01N 34°39' E 135°28'0 0.0
2018-Apr-14 06:29N 34°39' E 135°28'0 0.0
2018-Apr-14 06:00N 34°39' E 135°28'0 1.0
2018-Apr-14 05:31N 34°39' E 135°27'4 9.0
2018-Apr-14 05:01N 34°36' E 135°23'3 6.5
2018-Apr-14 04:30N 34°33' E 135°25'1 1.7
2018-Apr-14 04:00N 34°33' E 135°26'0 0.3
2018-Apr-14 03:30N 34°33' E 135°26'0 0.3
2018-Apr-14 03:00N 34°33' E 135°26'0 0.5
2018-Apr-14 02:30N 34°34' E 135°26'0 0.4
2018-Apr-14 02:00N 34°33' E 135°26'1 2.5
2018-Apr-14 01:30N 34°34' E 135°24'0 0.5
2018-Apr-14 01:01N 34°34' E 135°24'0 0.0
2018-Apr-14 00:30N 34°34' E 135°24'0 0.0
2018-Apr-14 00:00N 34°34' E 135°24'0 0.3
2018-Apr-13 23:30N 34°34' E 135°24'1 1.9
2018-Apr-13 23:00N 34°33' E 135°23'3 5.5
2018-Apr-13 22:30N 34°33' E 135°20'1 2.7
2018-Apr-13 22:00N 34°34' E 135°19'2 4.9
2018-Apr-13 21:30N 34°36' E 135°21'510.0
2018-Apr-13 21:00N 34°39' E 135°26'1 2.8
2018-Apr-13 20:30N 34°39' E 135°28'0 0.0
2018-Apr-13 20:00N 34°39' E 135°28'0 0.0
2018-Apr-13 19:30N 34°39' E 135°28'0 0.0
2018-Apr-13 19:00N 34°39' E 135°28'0 0.0
2018-Apr-13 18:30N 34°39' E 135°28'0 0.0
2018-Apr-13 17:59N 34°39' E 135°28'0 0.0
2018-Apr-13 17:30N 34°39' E 135°28'0 0.0
2018-Apr-13 17:00N 34°39' E 135°28'0 0.0
2018-Apr-13 16:30N 34°39' E 135°28'0 0.0
2018-Apr-13 16:00N 34°39' E 135°28'0 0.0
2018-Apr-13 15:26N 34°39' E 135°28'0 0.0
2018-Apr-13 15:00N 34°39' E 135°28'0 0.0
2018-Apr-13 14:30N 34°39' E 135°28'0 0.0
2018-Apr-13 13:00N 34°39' E 135°28'0 0.0
2018-Apr-13 12:30N 34°39' E 135°28'0 0.0
2018-Apr-13 12:00N 34°39' E 135°28'0 0.0
2018-Apr-13 11:30N 34°39' E 135°28'0 0.0
2018-Apr-13 11:00N 34°39' E 135°28'3 6.4
2018-Apr-13 10:30N 34°39' E 135°24'1 1.7
2018-Apr-13 10:00N 34°38' E 135°24'1 1.0
2018-Apr-13 09:31N 34°38' E 135°23'1 1.6
2018-Apr-13 09:00N 34°38' E 135°24'0 0.0
2018-Apr-13 08:30N 34°38' E 135°24'0 0.0
2018-Apr-13 08:00N 34°38' E 135°24'0 0.0
2018-Apr-13 07:30N 34°38' E 135°24'4 8.1
2018-Apr-13 07:00N 34°34' E 135°23'510.0
2018-Apr-13 06:30N 34°29' E 135°20'4 7.5
2018-Apr-13 06:00N 34°26' E 135°19'0 0.1
2018-Apr-13 05:30N 34°26' E 135°19'0 0.3
2018-Apr-13 05:00N 34°26' E 135°19'611.0
2018-Apr-13 04:30N 34°31' E 135°21'611.6
2018-Apr-13 04:00N 34°37' E 135°23'5 9.2
2018-Apr-13 03:31N 34°39' E 135°28'0 0.0
2018-Apr-13 03:00N 34°39' E 135°28'0 0.0
2018-Apr-13 02:30N 34°39' E 135°28'0 0.0
2018-Apr-13 02:00N 34°39' E 135°28'0 0.0
2018-Apr-13 01:30N 34°39' E 135°28'0 0.0
2018-Apr-13 01:00N 34°39' E 135°28'0 0.0
2018-Apr-13 00:29N 34°39' E 135°28'0 0.0
2018-Apr-12 23:59N 34°39' E 135°28'0 0.0
2018-Apr-12 23:29N 34°39' E 135°28'0 0.0
2018-Apr-12 23:00N 34°39' E 135°28'0 0.0
2018-Apr-12 22:30N 34°39' E 135°28'0 0.0
2018-Apr-12 22:01N 34°39' E 135°28'0 0.0
2018-Apr-12 21:30N 34°39' E 135°28'0 0.0
2018-Apr-12 21:00N 34°39' E 135°28'0 0.0
2018-Apr-12 20:31N 34°39' E 135°28'0 0.0
2018-Apr-12 20:00N 34°39' E 135°28'0 0.0
2018-Apr-12 19:30N 34°39' E 135°28'0 0.0
2018-Apr-12 19:00N 34°39' E 135°28'0 0.0
2018-Apr-12 18:31N 34°39' E 135°28'0 0.0
2018-Apr-12 18:00N 34°39' E 135°28'0 0.0
2018-Apr-12 17:30N 34°39' E 135°28'0 0.0
2018-Apr-12 17:01N 34°39' E 135°28'0 0.0
2018-Apr-12 16:30N 34°39' E 135°28'0 0.0
2018-Apr-12 16:00N 34°39' E 135°28'0 0.0
2018-Apr-12 15:30N 34°39' E 135°28'0 0.0
2018-Apr-12 15:00N 34°39' E 135°28'0 0.0
2018-Apr-12 14:30N 34°39' E 135°28'0 0.0
2018-Apr-12 14:00N 34°39' E 135°28'0 0.0
2018-Apr-12 13:30N 34°39' E 135°28'0 0.0
2018-Apr-12 13:00N 34°39' E 135°28'0 0.0
2018-Apr-12 12:31N 34°39' E 135°28'2 3.3
2018-Apr-12 12:01N 34°39' E 135°26'0 0.3
2018-Apr-12 11:30N 34°39' E 135°26'0 0.2
2018-Apr-12 11:00N 34°39' E 135°26'1 3.0
2018-Apr-12 10:30N 34°39' E 135°28'0 0.0
2018-Apr-12 10:01N 34°39' E 135°28'0 0.0
2018-Apr-12 09:30N 34°39' E 135°28'0 0.0
2018-Apr-12 09:00N 34°39' E 135°28'0 0.0
2018-Apr-12 08:30N 34°39' E 135°28'0 0.0
2018-Apr-12 08:00N 34°39' E 135°28'0 0.0
2018-Apr-12 07:30N 34°39' E 135°28'0 0.0
2018-Apr-12 07:01N 34°39' E 135°28'0 0.0
2018-Apr-12 06:31N 34°39' E 135°28'0 0.0
2018-Apr-12 06:01N 34°39' E 135°28'0 0.0
2018-Apr-12 05:30N 34°39' E 135°28'0 0.0
2018-Apr-12 05:01N 34°39' E 135°28'0 0.0
2018-Apr-12 04:31N 34°39' E 135°28'0 1.0
2018-Apr-12 04:00N 34°39' E 135°27'4 8.5
2018-Apr-12 03:30N 34°37' E 135°23'510.2
2018-Apr-12 03:00N 34°32' E 135°24'1 1.7
2018-Apr-12 02:30N 34°33' E 135°24'1 1.1
2018-Apr-12 02:00N 34°33' E 135°23'1 1.3
2018-Apr-12 01:30N 34°32' E 135°24'1 2.5
2018-Apr-12 01:00N 34°31' E 135°24'0 0.0
2018-Apr-12 00:30N 34°31' E 135°24'0 0.0
2018-Apr-12 00:00N 34°31' E 135°24'0 0.0
2018-Apr-11 23:31N 34°31' E 135°24'0 0.0
2018-Apr-11 23:01N 34°31' E 135°24'1 1.9
2018-Apr-11 22:30N 34°31' E 135°23'1 2.9
2018-Apr-11 22:00N 34°32' E 135°23'1 1.3
2018-Apr-11 21:31N 34°33' E 135°22'4 7.2
2018-Apr-11 21:00N 34°36' E 135°23'4 8.9
2018-Apr-11 20:30N 34°39' E 135°28'0 0.5
2018-Apr-11 20:00N 34°39' E 135°28'0 0.0
2018-Apr-11 19:31N 34°39' E 135°28'0 0.0
2018-Apr-11 19:00N 34°39' E 135°28'0 0.0
2018-Apr-11 18:30N 34°39' E 135°28'0 0.0
2018-Apr-11 18:00N 34°39' E 135°28'0 0.0
2018-Apr-11 17:30N 34°39' E 135°28'0 0.0
2018-Apr-11 17:00N 34°39' E 135°28'0 0.0
2018-Apr-11 16:30N 34°39' E 135°28'0 0.0
2018-Apr-11 16:00N 34°39' E 135°28'0 0.0
2018-Apr-11 15:31N 34°39' E 135°28'0 0.0
2018-Apr-11 15:01N 34°39' E 135°28'0 0.0
2018-Apr-11 14:30N 34°39' E 135°28'0 0.0
2018-Apr-11 14:00N 34°39' E 135°28'0 0.0
2018-Apr-11 13:30N 34°39' E 135°28'0 0.0
2018-Apr-11 13:00N 34°39' E 135°28'0 0.0
2018-Apr-11 12:30N 34°39' E 135°28'2 4.2
2018-Apr-11 12:00N 34°39' E 135°25'4 7.7
2018-Apr-11 11:30N 34°35' E 135°26'0 0.7
2018-Apr-11 11:00N 34°35' E 135°25'2 3.5
2018-Apr-11 10:31N 34°36' E 135°24'3 5.3
2018-Apr-11 10:00N 34°39' E 135°24'0 0.1
2018-Apr-11 09:31N 34°39' E 135°24'3 5.2
2018-Apr-11 09:00N 34°39' E 135°27'1 1.6
2018-Apr-11 08:31N 34°39' E 135°28'0 0.0
2018-Apr-11 08:00N 34°39' E 135°28'0 0.0
2018-Apr-11 07:30N 34°39' E 135°28'0 0.0
2018-Apr-11 07:00N 34°39' E 135°28'0 0.0
2018-Apr-11 06:31N 34°39' E 135°28'1 2.7
2018-Apr-11 06:00N 34°39' E 135°26'4 8.8
2018-Apr-11 05:30N 34°35' E 135°23'4 8.7
2018-Apr-11 05:01N 34°31' E 135°25'0 0.0
2018-Apr-11 04:30N 34°32' E 135°25'1 2.2
2018-Apr-11 04:00N 34°31' E 135°24'0 0.0
2018-Apr-11 03:30N 34°31' E 135°24'0 0.0
2018-Apr-11 03:00N 34°31' E 135°24'0 0.0
2018-Apr-11 02:30N 34°31' E 135°24'0 0.0
2018-Apr-11 02:01N 34°31' E 135°24'0 0.0
2018-Apr-11 01:30N 34°31' E 135°24'0 0.0
2018-Apr-11 01:00N 34°31' E 135°24'0 0.0
2018-Apr-11 00:31N 34°31' E 135°24'3 6.0
2018-Apr-11 00:00N 34°34' E 135°25'2 3.1
2018-Apr-10 23:30N 34°33' E 135°23'2 4.5
2018-Apr-10 23:01N 34°33' E 135°20'1 1.3
2018-Apr-10 22:30N 34°33' E 135°21'3 5.8
2018-Apr-10 22:00N 34°36' E 135°23'5 9.4
2018-Apr-10 21:31N 34°39' E 135°27'1 1.5
2018-Apr-10 21:01N 34°39' E 135°28'0 0.0
2018-Apr-10 20:30N 34°39' E 135°28'0 0.0
2018-Apr-10 20:00N 34°39' E 135°28'0 0.0
2018-Apr-10 19:30N 34°39' E 135°28'0 0.0
2018-Apr-10 19:01N 34°39' E 135°28'0 0.0
2018-Apr-10 18:31N 34°39' E 135°28'0 0.0
2018-Apr-10 18:00N 34°39' E 135°28'0 0.0
2018-Apr-10 17:30N 34°39' E 135°28'0 0.0
2018-Apr-10 16:55N 34°39' E 135°28'0 0.0
2018-Apr-10 16:30N 34°39' E 135°28'0 0.0
2018-Apr-10 15:59N 34°39' E 135°28'0 0.0
2018-Apr-10 15:30N 34°39' E 135°28'0 0.0
2018-Apr-10 15:00N 34°39' E 135°28'0 0.0
2018-Apr-10 14:30N 34°39' E 135°28'0 0.0
2018-Apr-10 14:01N 34°39' E 135°28'0 0.0
2018-Apr-10 13:31N 34°39' E 135°28'0 0.0
2018-Apr-10 13:00N 34°39' E 135°28'0 0.0
2018-Apr-10 12:26N 34°39' E 135°28'0 0.0
2018-Apr-10 12:00N 34°39' E 135°28'0 0.0
2018-Apr-10 11:30N 34°39' E 135°28'0 0.0
2018-Apr-10 11:01N 34°39' E 135°28'0 0.0
2018-Apr-10 10:30N 34°39' E 135°28'0 0.0
2018-Apr-10 10:00N 34°39' E 135°28'0 0.0
2018-Apr-10 09:30N 34°39' E 135°28'0 0.0
2018-Apr-10 09:01N 34°39' E 135°28'0 0.0
2018-Apr-10 08:30N 34°39' E 135°28'0 0.0
2018-Apr-10 08:01N 34°39' E 135°28'0 0.0
2018-Apr-10 07:31N 34°39' E 135°28'0 0.0
2018-Apr-10 07:00N 34°39' E 135°28'0 0.0
2018-Apr-10 06:31N 34°39' E 135°28'0 0.0
2018-Apr-10 06:00N 34°39' E 135°28'1 3.0
2018-Apr-10 05:30N 34°39' E 135°26'5 9.0
2018-Apr-10 04:59N 34°35' E 135°23'4 7.7
2018-Apr-10 04:30N 34°31' E 135°23'1 1.9
2018-Apr-10 04:00N 34°32' E 135°23'1 2.0
2018-Apr-10 03:30N 34°33' E 135°22'2 4.9
2018-Apr-10 03:00N 34°35' E 135°24'1 1.9
2018-Apr-10 02:30N 34°36' E 135°24'0 0.0
2018-Apr-10 02:00N 34°36' E 135°24'0 0.0
2018-Apr-10 01:31N 34°36' E 135°24'0 0.0
2018-Apr-10 01:00N 34°36' E 135°24'0 0.0
2018-Apr-10 00:30N 34°36' E 135°24'0 0.0
2018-Apr-10 00:00N 34°36' E 135°24'0 0.0
2018-Apr-09 23:30N 34°36' E 135°24'3 5.9
2018-Apr-09 23:00N 34°39' E 135°24'1 1.3
2018-Apr-09 22:30N 34°39' E 135°25'2 4.6
2018-Apr-09 22:00N 34°39' E 135°28'0 0.0
2018-Apr-09 21:30N 34°39' E 135°28'0 0.0
2018-Apr-09 21:00N 34°39' E 135°28'0 0.0
2018-Apr-09 20:30N 34°39' E 135°28'0 0.0
2018-Apr-09 20:00N 34°39' E 135°28'0 0.0
2018-Apr-09 19:30N 34°39' E 135°28'  
Track history (hours):
 
Tides and Currents Weather Stations Pressure Air Temp Water Temp Dewpoint Dewpoint Depression Visibility Wind Speed Wind Dir Waves Ship Positions

No 31 Takemaru

Last reported at 2018-Apr-19 19:00 UTC. Time now 2018-Apr-19 19:07 UTC.
Position N 34°39' E 135°28'.

Length 31 m; draft 2.5 m.

Type: Tug. MMSI: 431000439.

Date/timePositionNaut miles runAvg speedWind from/ knotsBaromVisibWave heightAir tempDewpointWater temp
2018-Apr-19 19:00N 34°39' E 135°28'0 0.0
2018-Apr-19 18:31N 34°39' E 135°28'0 0.0
2018-Apr-19 18:00N 34°39' E 135°28'0 0.0
2018-Apr-19 17:30N 34°39' E 135°28'0 0.0
2018-Apr-19 17:01N 34°39' E 135°28'0 0.0
2018-Apr-19 16:31N 34°39' E 135°28'0 0.0
2018-Apr-19 16:00N 34°39' E 135°28'0 0.0
2018-Apr-19 15:30N 34°39' E 135°28'0 0.0
2018-Apr-19 15:00N 34°39' E 135°28'0 0.0
2018-Apr-19 14:31N 34°39' E 135°28'0 0.0
2018-Apr-19 14:00N 34°39' E 135°28'0 0.0
2018-Apr-19 13:31N 34°39' E 135°28'0 0.0
2018-Apr-19 13:00N 34°39' E 135°28'0 0.0
2018-Apr-19 12:30N 34°39' E 135°28'0 0.0
2018-Apr-19 12:01N 34°39' E 135°28'0 0.0
2018-Apr-19 11:31N 34°39' E 135°28'0 0.0
2018-Apr-19 11:00N 34°39' E 135°28'0 0.0
2018-Apr-19 10:30N 34°39' E 135°28'0 0.0
2018-Apr-19 10:00N 34°39' E 135°28'0 0.0
2018-Apr-19 09:30N 34°39' E 135°28'0 0.0
2018-Apr-19 09:00N 34°39' E 135°28'0 0.0
2018-Apr-19 08:30N 34°39' E 135°28'0 0.0
2018-Apr-19 08:00N 34°39' E 135°28'0 0.0
2018-Apr-19 07:31N 34°39' E 135°28'0 0.0
2018-Apr-19 07:00N 34°39' E 135°28'1 1.2
2018-Apr-19 06:31N 34°39' E 135°27'3 5.1
2018-Apr-19 06:01N 34°39' E 135°24'1 2.4
2018-Apr-19 05:30N 34°38' E 135°23'4 7.3
2018-Apr-19 05:00N 34°39' E 135°28'0 0.4
2018-Apr-19 04:30N 34°39' E 135°28'0 0.0
2018-Apr-19 04:00N 34°39' E 135°28'0 0.0
2018-Apr-19 03:30N 34°39' E 135°28'0 0.0
2018-Apr-19 03:01N 34°39' E 135°28'0 0.0
2018-Apr-19 02:30N 34°39' E 135°28'0 0.0
2018-Apr-19 02:01N 34°39' E 135°28'0 0.0
2018-Apr-19 01:30N 34°39' E 135°28'0 0.0
2018-Apr-19 01:01N 34°39' E 135°28'0 0.0
2018-Apr-19 00:30N 34°39' E 135°28'0 0.0
2018-Apr-19 00:00N 34°39' E 135°28'0 0.0
2018-Apr-18 23:30N 34°39' E 135°28'0 0.0
2018-Apr-18 23:00N 34°39' E 135°28'0 0.0
2018-Apr-18 22:30N 34°39' E 135°28'0 0.0
2018-Apr-18 22:00N 34°39' E 135°28'0 0.0
2018-Apr-18 21:30N 34°39' E 135°28'0 0.0
2018-Apr-18 21:01N 34°39' E 135°28'0 0.0
2018-Apr-18 20:31N 34°39' E 135°28'0 0.0
2018-Apr-18 20:01N 34°39' E 135°28'0 0.0
2018-Apr-18 19:30N 34°39' E 135°28'0 0.0
2018-Apr-18 19:01N 34°39' E 135°28'0 0.0
2018-Apr-18 18:31N 34°39' E 135°28'0 0.0
2018-Apr-18 18:00N 34°39' E 135°28'0 0.0
2018-Apr-18 17:30N 34°39' E 135°28'0 0.0
2018-Apr-18 17:00N 34°39' E 135°28'0 0.0
2018-Apr-18 16:29N 34°39' E 135°28'0 0.0
2018-Apr-18 16:00N 34°39' E 135°28'0 0.0
2018-Apr-18 15:31N 34°39' E 135°28'0 0.0
2018-Apr-18 15:00N 34°39' E 135°28'0 0.0
2018-Apr-18 14:31N 34°39' E 135°28'0 0.0
2018-Apr-18 14:00N 34°39' E 135°28'0 0.0
2018-Apr-18 13:30N 34°39' E 135°28'0 0.0
2018-Apr-18 13:01N 34°39' E 135°28'0 0.0
2018-Apr-18 12:30N 34°39' E 135°28'0 0.0
2018-Apr-18 12:01N 34°39' E 135°28'0 0.0
2018-Apr-18 11:30N 34°39' E 135°28'0 0.0
2018-Apr-18 11:01N 34°39' E 135°28'2 4.2
2018-Apr-18 10:31N 34°39' E 135°26'0 0.1
2018-Apr-18 10:00N 34°39' E 135°25'2 3.1
2018-Apr-18 09:30N 34°39' E 135°27'1 1.3
2018-Apr-18 09:00N 34°39' E 135°28'0 0.0
2018-Apr-18 08:30N 34°39' E 135°28'0 0.0
2018-Apr-18 08:00N 34°39' E 135°28'0 0.0
2018-Apr-18 07:31N 34°39' E 135°28'0 0.0
2018-Apr-18 07:01N 34°39' E 135°28'0 0.0
2018-Apr-18 06:30N 34°39' E 135°28'0 0.0
2018-Apr-18 06:01N 34°39' E 135°28'0 0.0
2018-Apr-18 05:30N 34°39' E 135°28'0 0.0
2018-Apr-18 05:00N 34°39' E 135°28'0 0.0
2018-Apr-18 04:30N 34°39' E 135°28'0 0.0
2018-Apr-18 04:01N 34°39' E 135°28'0 0.0
2018-Apr-18 03:31N 34°39' E 135°28'0 0.0
2018-Apr-18 03:00N 34°39' E 135°28'2 4.7
2018-Apr-18 02:31N 34°39' E 135°25'5 9.8
2018-Apr-18 02:00N 34°34' E 135°24'2 3.3
2018-Apr-18 01:30N 34°33' E 135°26'0 0.3
2018-Apr-18 01:00N 34°33' E 135°26'3 7.0
2018-Apr-18 00:30N 34°36' E 135°23'4 8.9
2018-Apr-18 00:00N 34°39' E 135°28'0 0.6
2018-Apr-17 23:31N 34°39' E 135°28'0 0.0
2018-Apr-17 23:01N 34°39' E 135°28'0 0.0
2018-Apr-17 22:30N 34°39' E 135°28'0 0.0
2018-Apr-17 22:01N 34°39' E 135°28'0 0.0
2018-Apr-17 21:31N 34°39' E 135°28'0 0.0
2018-Apr-17 21:00N 34°39' E 135°28'0 0.0
2018-Apr-17 20:29N 34°39' E 135°28'0 0.0
2018-Apr-17 20:01N 34°39' E 135°28'0 0.0
2018-Apr-17 19:30N 34°39' E 135°28'0 0.0
2018-Apr-17 19:00N 34°39' E 135°28'0 0.0
2018-Apr-17 18:30N 34°39' E 135°28'0 0.0
2018-Apr-17 18:01N 34°39' E 135°28'0 0.0
2018-Apr-17 17:30N 34°39' E 135°28'0 0.0
2018-Apr-17 17:00N 34°39' E 135°28'0 0.0
2018-Apr-17 16:31N 34°39' E 135°28'0 0.0
2018-Apr-17 16:01N 34°39' E 135°28'0 0.0
2018-Apr-17 15:30N 34°39' E 135°28'0 0.0
2018-Apr-17 15:01N 34°39' E 135°28'0 0.0
2018-Apr-17 14:31N 34°39' E 135°28'0 0.0
2018-Apr-17 14:01N 34°39' E 135°28'0 0.0
2018-Apr-17 13:30N 34°39' E 135°28'0 0.0
2018-Apr-17 13:00N 34°39' E 135°28'0 0.0
2018-Apr-17 12:30N 34°39' E 135°28'0 0.0
2018-Apr-17 12:00N 34°39' E 135°28'0 0.0
2018-Apr-17 11:30N 34°39' E 135°28'0 0.0
2018-Apr-17 11:01N 34°39' E 135°28'0 0.0
2018-Apr-17 10:30N 34°39' E 135°28'0 0.0
2018-Apr-17 10:00N 34°39' E 135°28'0 0.0
2018-Apr-17 09:31N 34°39' E 135°28'0 0.0
2018-Apr-17 09:00N 34°39' E 135°28'0 0.0
2018-Apr-17 08:30N 34°39' E 135°28'0 0.0
2018-Apr-17 08:00N 34°39' E 135°28'0 0.0
2018-Apr-17 07:30N 34°39' E 135°28'0 0.0
2018-Apr-17 07:00N 34°39' E 135°28'0 0.0
2018-Apr-17 06:30N 34°39' E 135°28'0 0.0
2018-Apr-17 06:01N 34°39' E 135°28'0 0.0
2018-Apr-17 05:31N 34°39' E 135°28'0 0.0
2018-Apr-17 05:00N 34°39' E 135°28'0 0.0
2018-Apr-17 04:31N 34°39' E 135°28'0 0.0
2018-Apr-17 04:00N 34°39' E 135°28'0 0.0
2018-Apr-17 03:30N 34°39' E 135°28'0 0.0
2018-Apr-17 03:01N 34°39' E 135°28'0 0.0
2018-Apr-17 02:31N 34°39' E 135°28'0 0.0
2018-Apr-17 02:00N 34°39' E 135°28'0 0.0
2018-Apr-17 01:30N 34°39' E 135°28'0 0.0
2018-Apr-17 01:00N 34°39' E 135°28'0 0.0
2018-Apr-17 00:30N 34°39' E 135°28'0 0.0
2018-Apr-17 00:00N 34°39' E 135°28'0 0.0
2018-Apr-16 23:31N 34°39' E 135°28'0 0.0
2018-Apr-16 23:00N 34°39' E 135°28'0 0.0
2018-Apr-16 22:30N 34°39' E 135°28'0 0.0
2018-Apr-16 22:01N 34°39' E 135°28'0 0.0
2018-Apr-16 21:30N 34°39' E 135°28'0 0.0
2018-Apr-16 21:01N 34°39' E 135°28'0 0.0
2018-Apr-16 20:31N 34°39' E 135°28'0 0.0
2018-Apr-16 20:00N 34°39' E 135°28'0 0.0
2018-Apr-16 19:30N 34°39' E 135°28'0 0.0
2018-Apr-16 19:01N 34°39' E 135°28'0 0.0
2018-Apr-16 18:30N 34°39' E 135°28'0 0.0
2018-Apr-16 18:01N 34°39' E 135°28'0 0.0
2018-Apr-16 17:30N 34°39' E 135°28'0 0.0
2018-Apr-16 17:01N 34°39' E 135°28'0 0.0
2018-Apr-16 16:30N 34°39' E 135°28'0 0.0
2018-Apr-16 16:00N 34°39' E 135°28'0 0.0
2018-Apr-16 15:30N 34°39' E 135°28'0 0.0
2018-Apr-16 15:00N 34°39' E 135°28'0 0.0
2018-Apr-16 14:31N 34°39' E 135°28'0 0.0
2018-Apr-16 14:01N 34°39' E 135°28'0 0.0
2018-Apr-16 13:31N 34°39' E 135°28'0 0.0
2018-Apr-16 13:01N 34°39' E 135°28'0 0.0
2018-Apr-16 12:30N 34°39' E 135°28'0 0.0
2018-Apr-16 12:01N 34°39' E 135°28'0 0.0
2018-Apr-16 11:30N 34°39' E 135°28'0 0.0
2018-Apr-16 11:01N 34°39' E 135°28'0 0.0
2018-Apr-16 10:31N 34°39' E 135°28'0 0.0
2018-Apr-16 10:01N 34°39' E 135°28'0 0.0
2018-Apr-16 09:30N 34°39' E 135°28'0 0.0
2018-Apr-16 09:00N 34°39' E 135°28'0 0.0
2018-Apr-16 08:31N 34°39' E 135°28'0 0.0
2018-Apr-16 08:00N 34°39' E 135°28'0 0.0
2018-Apr-16 07:30N 34°39' E 135°28'0 0.0
2018-Apr-16 07:01N 34°39' E 135°28'0 0.0
2018-Apr-16 06:30N 34°39' E 135°28'0 0.0
2018-Apr-16 06:00N 34°39' E 135°28'0 0.0
2018-Apr-16 05:31N 34°39' E 135°28'0 0.0
2018-Apr-16 05:01N 34°39' E 135°28'0 0.0
2018-Apr-16 04:31N 34°39' E 135°28'0 0.0
2018-Apr-16 04:00N 34°39' E 135°28'0 0.0
2018-Apr-16 03:30N 34°39' E 135°28'0 0.0
2018-Apr-16 03:01N 34°39' E 135°28'0 0.0
2018-Apr-16 02:30N 34°39' E 135°28'0 0.0
2018-Apr-16 02:00N 34°39' E 135°28'0 0.0
2018-Apr-16 01:30N 34°39' E 135°28'0 0.0
2018-Apr-16 01:00N 34°39' E 135°28'4 7.2
2018-Apr-16 00:30N 34°38' E 135°24'611.7
2018-Apr-16 00:01N 34°33' E 135°25'0 0.2
2018-Apr-15 23:30N 34°33' E 135°25'0 0.4
2018-Apr-15 23:00N 34°33' E 135°25'1 2.0
2018-Apr-15 22:30N 34°33' E 135°24'4 7.7
2018-Apr-15 22:01N 34°34' E 135°20'0 0.3
2018-Apr-15 21:30N 34°34' E 135°20'3 5.5
2018-Apr-15 21:00N 34°35' E 135°23'1 1.6
2018-Apr-15 20:30N 34°36' E 135°24'0 0.0
2018-Apr-15 20:00N 34°36' E 135°24'0 0.0
2018-Apr-15 19:30N 34°36' E 135°24'0 0.0
2018-Apr-15 19:01N 34°36' E 135°24'0 0.0
2018-Apr-15 18:30N 34°36' E 135°24'0 0.0
2018-Apr-15 18:00N 34°36' E 135°24'0 0.0
2018-Apr-15 17:30N 34°36' E 135°24'0 0.0
2018-Apr-15 17:00N 34°36' E 135°24'0 0.0
2018-Apr-15 16:30N 34°36' E 135°24'0 0.0
2018-Apr-15 16:00N 34°36' E 135°24'0 0.0
2018-Apr-15 15:31N 34°36' E 135°24'0 0.0
2018-Apr-15 15:00N 34°36' E 135°24'2 4.3
2018-Apr-15 14:30N 34°34' E 135°26'1 1.1
2018-Apr-15 14:01N 34°35' E 135°25'4 7.8
2018-Apr-15 13:31N 34°39' E 135°25'2 4.5
2018-Apr-15 13:00N 34°39' E 135°28'0 0.0
2018-Apr-15 12:30N 34°39' E 135°28'0 0.0
2018-Apr-15 12:01N 34°39' E 135°28'0 0.0
2018-Apr-15 11:30N 34°39' E 135°28'0 0.0
2018-Apr-15 11:01N 34°39' E 135°28'0 0.0
2018-Apr-15 10:30N 34°39' E 135°28'0 0.0
2018-Apr-15 10:00N 34°39' E 135°28'0 0.0
2018-Apr-15 09:30N 34°39' E 135°28'0 0.0
2018-Apr-15 08:59N 34°39' E 135°28'0 0.0
2018-Apr-15 08:30N 34°39' E 135°28'4 8.4
2018-Apr-15 08:00N 34°37' E 135°24'1 1.3
2018-Apr-15 07:31N 34°36' E 135°24'1 2.9
2018-Apr-15 07:00N 34°34' E 135°23'2 4.8
2018-Apr-15 06:30N 34°33' E 135°26'0 0.1
2018-Apr-15 06:01N 34°34' E 135°26'4 7.9
2018-Apr-15 05:31N 34°37' E 135°24'4 7.6
2018-Apr-15 04:58N 34°39' E 135°28'0 0.0
2018-Apr-15 04:31N 34°39' E 135°28'0 0.0
2018-Apr-15 04:00N 34°39' E 135°28'0 0.0
2018-Apr-15 03:30N 34°39' E 135°28'0 0.0
2018-Apr-15 03:00N 34°39' E 135°28'0 0.0
2018-Apr-15 02:30N 34°39' E 135°28'0 0.0
2018-Apr-15 02:00N 34°39' E 135°28'0 0.0
2018-Apr-15 01:30N 34°39' E 135°28'0 0.0
2018-Apr-15 01:01N 34°39' E 135°28'0 0.0
2018-Apr-15 00:31N 34°39' E 135°28'0 0.0
2018-Apr-15 00:00N 34°39' E 135°28'0 0.0
2018-Apr-14 23:31N 34°39' E 135°28'0 0.0
2018-Apr-14 23:01N 34°39' E 135°28'0 0.0
2018-Apr-14 22:30N 34°39' E 135°28'0 0.0
2018-Apr-14 22:01N 34°39' E 135°28'0 0.0
2018-Apr-14 21:30N 34°39' E 135°28'0 0.0
2018-Apr-14 21:00N 34°39' E 135°28'0 0.0
2018-Apr-14 20:30N 34°39' E 135°28'0 0.0
2018-Apr-14 19:59N 34°39' E 135°28'0 0.0
2018-Apr-14 19:31N 34°39' E 135°28'0 0.0
2018-Apr-14 19:00N 34°39' E 135°28'0 0.0
2018-Apr-14 18:30N 34°39' E 135°28'0 0.0
2018-Apr-14 18:00N 34°39' E 135°28'0 0.0
2018-Apr-14 17:31N 34°39' E 135°28'0 0.0
2018-Apr-14 17:00N 34°39' E 135°28'0 0.0
2018-Apr-14 16:31N 34°39' E 135°28'0 0.0
2018-Apr-14 16:00N 34°39' E 135°28'0 0.0
2018-Apr-14 15:30N 34°39' E 135°28'0 0.0
2018-Apr-14 15:00N 34°39' E 135°28'0 0.0
2018-Apr-14 14:28N 34°39' E 135°28'0 0.0
2018-Apr-14 14:00N 34°39' E 135°28'0 0.0
2018-Apr-14 13:30N 34°39' E 135°28'0 0.0
2018-Apr-14 13:01N 34°39' E 135°28'0 0.0
2018-Apr-14 12:30N 34°39' E 135°28'0 0.0
2018-Apr-14 12:00N 34°39' E 135°28'0 0.0
2018-Apr-14 11:30N 34°39' E 135°28'0 0.0
2018-Apr-14 11:00N 34°39' E 135°28'0 0.0
2018-Apr-14 10:30N 34°39' E 135°28'0 0.0
2018-Apr-14 10:01N 34°39' E 135°28'0 0.0
2018-Apr-14 09:31N 34°39' E 135°28'0 0.0
2018-Apr-14 09:00N 34°39' E 135°28'0 0.0
2018-Apr-14 08:30N 34°39' E 135°28'0 0.0
2018-Apr-14 08:00N 34°39' E 135°28'0 0.0
2018-Apr-14 07:30N 34°39' E 135°28'0 0.0
2018-Apr-14 07:01N 34°39' E 135°28'0 0.0
2018-Apr-14 06:29N 34°39' E 135°28'0 0.0
2018-Apr-14 06:00N 34°39' E 135°28'0 1.0
2018-Apr-14 05:31N 34°39' E 135°27'4 9.0
2018-Apr-14 05:01N 34°36' E 135°23'3 6.5
2018-Apr-14 04:30N 34°33' E 135°25'1 1.7
2018-Apr-14 04:00N 34°33' E 135°26'0 0.3
2018-Apr-14 03:30N 34°33' E 135°26'0 0.3
2018-Apr-14 03:00N 34°33' E 135°26'0 0.5
2018-Apr-14 02:30N 34°34' E 135°26'0 0.4
2018-Apr-14 02:00N 34°33' E 135°26'1 2.5
2018-Apr-14 01:30N 34°34' E 135°24'0 0.5
2018-Apr-14 01:01N 34°34' E 135°24'0 0.0
2018-Apr-14 00:30N 34°34' E 135°24'0 0.0
2018-Apr-14 00:00N 34°34' E 135°24'0 0.3
2018-Apr-13 23:30N 34°34' E 135°24'1 1.9
2018-Apr-13 23:00N 34°33' E 135°23'3 5.5
2018-Apr-13 22:30N 34°33' E 135°20'1 2.7
2018-Apr-13 22:00N 34°34' E 135°19'2 4.9
2018-Apr-13 21:30N 34°36' E 135°21'510.0
2018-Apr-13 21:00N 34°39' E 135°26'1 2.8
2018-Apr-13 20:30N 34°39' E 135°28'0 0.0
2018-Apr-13 20:00N 34°39' E 135°28'0 0.0
2018-Apr-13 19:30N 34°39' E 135°28'0 0.0
2018-Apr-13 19:00N 34°39' E 135°28'0 0.0
2018-Apr-13 18:30N 34°39' E 135°28'0 0.0
2018-Apr-13 17:59N 34°39' E 135°28'0 0.0
2018-Apr-13 17:30N 34°39' E 135°28'0 0.0
2018-Apr-13 17:00N 34°39' E 135°28'0 0.0
2018-Apr-13 16:30N 34°39' E 135°28'0 0.0
2018-Apr-13 16:00N 34°39' E 135°28'0 0.0
2018-Apr-13 15:26N 34°39' E 135°28'0 0.0
2018-Apr-13 15:00N 34°39' E 135°28'0 0.0
2018-Apr-13 14:30N 34°39' E 135°28'0 0.0
2018-Apr-13 13:00N 34°39' E 135°28'0 0.0
2018-Apr-13 12:30N 34°39' E 135°28'0 0.0
2018-Apr-13 12:00N 34°39' E 135°28'0 0.0
2018-Apr-13 11:30N 34°39' E 135°28'0 0.0
2018-Apr-13 11:00N 34°39' E 135°28'3 6.4
2018-Apr-13 10:30N 34°39' E 135°24'1 1.7
2018-Apr-13 10:00N 34°38' E 135°24'1 1.0
2018-Apr-13 09:31N 34°38' E 135°23'1 1.6
2018-Apr-13 09:00N 34°38' E 135°24'0 0.0
2018-Apr-13 08:30N 34°38' E 135°24'0 0.0
2018-Apr-13 08:00N 34°38' E 135°24'0 0.0
2018-Apr-13 07:30N 34°38' E 135°24'4 8.1
2018-Apr-13 07:00N 34°34' E 135°23'510.0
2018-Apr-13 06:30N 34°29' E 135°20'4 7.5
2018-Apr-13 06:00N 34°26' E 135°19'0 0.1
2018-Apr-13 05:30N 34°26' E 135°19'0 0.3
2018-Apr-13 05:00N 34°26' E 135°19'611.0
2018-Apr-13 04:30N 34°31' E 135°21'611.6
2018-Apr-13 04:00N 34°37' E 135°23'5 9.2
2018-Apr-13 03:31N 34°39' E 135°28'0 0.0
2018-Apr-13 03:00N 34°39' E 135°28'0 0.0
2018-Apr-13 02:30N 34°39' E 135°28'0 0.0
2018-Apr-13 02:00N 34°39' E 135°28'0 0.0
2018-Apr-13 01:30N 34°39' E 135°28'0 0.0
2018-Apr-13 01:00N 34°39' E 135°28'0 0.0
2018-Apr-13 00:29N 34°39' E 135°28'0 0.0
2018-Apr-12 23:59N 34°39' E 135°28'0 0.0
2018-Apr-12 23:29N 34°39' E 135°28'0 0.0
2018-Apr-12 23:00N 34°39' E 135°28'0 0.0
2018-Apr-12 22:30N 34°39' E 135°28'0 0.0
2018-Apr-12 22:01N 34°39' E 135°28'0 0.0
2018-Apr-12 21:30N 34°39' E 135°28'0 0.0
2018-Apr-12 21:00N 34°39' E 135°28'0 0.0
2018-Apr-12 20:31N 34°39' E 135°28'0 0.0
2018-Apr-12 20:00N 34°39' E 135°28'0 0.0
2018-Apr-12 19:30N 34°39' E 135°28'0 0.0
2018-Apr-12 19:00N 34°39' E 135°28'0 0.0
2018-Apr-12 18:31N 34°39' E 135°28'0 0.0
2018-Apr-12 18:00N 34°39' E 135°28'0 0.0
2018-Apr-12 17:30N 34°39' E 135°28'0 0.0
2018-Apr-12 17:01N 34°39' E 135°28'0 0.0
2018-Apr-12 16:30N 34°39' E 135°28'0 0.0
2018-Apr-12 16:00N 34°39' E 135°28'0 0.0
2018-Apr-12 15:30N 34°39' E 135°28'0 0.0
2018-Apr-12 15:00N 34°39' E 135°28'0 0.0
2018-Apr-12 14:30N 34°39' E 135°28'0 0.0
2018-Apr-12 14:00N 34°39' E 135°28'0 0.0
2018-Apr-12 13:30N 34°39' E 135°28'0 0.0
2018-Apr-12 13:00N 34°39' E 135°28'0 0.0
2018-Apr-12 12:31N 34°39' E 135°28'2 3.3
2018-Apr-12 12:01N 34°39' E 135°26'0 0.3
2018-Apr-12 11:30N 34°39' E 135°26'0 0.2
2018-Apr-12 11:00N 34°39' E 135°26'1 3.0
2018-Apr-12 10:30N 34°39' E 135°28'0 0.0
2018-Apr-12 10:01N 34°39' E 135°28'0 0.0
2018-Apr-12 09:30N 34°39' E 135°28'0 0.0
2018-Apr-12 09:00N 34°39' E 135°28'0 0.0
2018-Apr-12 08:30N 34°39' E 135°28'0 0.0
2018-Apr-12 08:00N 34°39' E 135°28'0 0.0
2018-Apr-12 07:30N 34°39' E 135°28'0 0.0
2018-Apr-12 07:01N 34°39' E 135°28'0 0.0
2018-Apr-12 06:31N 34°39' E 135°28'0 0.0
2018-Apr-12 06:01N 34°39' E 135°28'0 0.0
2018-Apr-12 05:30N 34°39' E 135°28'0 0.0
2018-Apr-12 05:01N 34°39' E 135°28'0 0.0
2018-Apr-12 04:31N 34°39' E 135°28'0 1.0
2018-Apr-12 04:00N 34°39' E 135°27'4 8.5
2018-Apr-12 03:30N 34°37' E 135°23'510.2
2018-Apr-12 03:00N 34°32' E 135°24'1 1.7
2018-Apr-12 02:30N 34°33' E 135°24'1 1.1
2018-Apr-12 02:00N 34°33' E 135°23'1 1.3
2018-Apr-12 01:30N 34°32' E 135°24'1 2.5
2018-Apr-12 01:00N 34°31' E 135°24'0 0.0
2018-Apr-12 00:30N 34°31' E 135°24'0 0.0
2018-Apr-12 00:00N 34°31' E 135°24'0 0.0
2018-Apr-11 23:31N 34°31' E 135°24'0 0.0
2018-Apr-11 23:01N 34°31' E 135°24'1 1.9
2018-Apr-11 22:30N 34°31' E 135°23'1 2.9
2018-Apr-11 22:00N 34°32' E 135°23'1 1.3
2018-Apr-11 21:31N 34°33' E 135°22'4 7.2
2018-Apr-11 21:00N 34°36' E 135°23'4 8.9
2018-Apr-11 20:30N 34°39' E 135°28'0 0.5
2018-Apr-11 20:00N 34°39' E 135°28'0 0.0
2018-Apr-11 19:31N 34°39' E 135°28'0 0.0
2018-Apr-11 19:00N 34°39' E 135°28'0 0.0
2018-Apr-11 18:30N 34°39' E 135°28'0 0.0
2018-Apr-11 18:00N 34°39' E 135°28'0 0.0
2018-Apr-11 17:30N 34°39' E 135°28'0 0.0
2018-Apr-11 17:00N 34°39' E 135°28'0 0.0
2018-Apr-11 16:30N 34°39' E 135°28'0 0.0
2018-Apr-11 16:00N 34°39' E 135°28'0 0.0
2018-Apr-11 15:31N 34°39' E 135°28'0 0.0
2018-Apr-11 15:01N 34°39' E 135°28'0 0.0
2018-Apr-11 14:30N 34°39' E 135°28'0 0.0
2018-Apr-11 14:00N 34°39' E 135°28'0 0.0
2018-Apr-11 13:30N 34°39' E 135°28'0 0.0
2018-Apr-11 13:00N 34°39' E 135°28'0 0.0
2018-Apr-11 12:30N 34°39' E 135°28'2 4.2
2018-Apr-11 12:00N 34°39' E 135°25'4 7.7
2018-Apr-11 11:30N 34°35' E 135°26'0 0.7
2018-Apr-11 11:00N 34°35' E 135°25'2 3.5
2018-Apr-11 10:31N 34°36' E 135°24'3 5.3
2018-Apr-11 10:00N 34°39' E 135°24'0 0.1
2018-Apr-11 09:31N 34°39' E 135°24'3 5.2
2018-Apr-11 09:00N 34°39' E 135°27'1 1.6
2018-Apr-11 08:31N 34°39' E 135°28'0 0.0
2018-Apr-11 08:00N 34°39' E 135°28'0 0.0
2018-Apr-11 07:30N 34°39' E 135°28'0 0.0
2018-Apr-11 07:00N 34°39' E 135°28'0 0.0
2018-Apr-11 06:31N 34°39' E 135°28'1 2.7
2018-Apr-11 06:00N 34°39' E 135°26'4 8.8
2018-Apr-11 05:30N 34°35' E 135°23'4 8.7
2018-Apr-11 05:01N 34°31' E 135°25'0 0.0
2018-Apr-11 04:30N 34°32' E 135°25'1 2.2
2018-Apr-11 04:00N 34°31' E 135°24'0 0.0
2018-Apr-11 03:30N 34°31' E 135°24'0 0.0
2018-Apr-11 03:00N 34°31' E 135°24'0 0.0
2018-Apr-11 02:30N 34°31' E 135°24'0 0.0
2018-Apr-11 02:01N 34°31' E 135°24'0 0.0
2018-Apr-11 01:30N 34°31' E 135°24'0 0.0
2018-Apr-11 01:00N 34°31' E 135°24'0 0.0
2018-Apr-11 00:31N 34°31' E 135°24'3 6.0
2018-Apr-11 00:00N 34°34' E 135°25'2 3.1
2018-Apr-10 23:30N 34°33' E 135°23'2 4.5
2018-Apr-10 23:01N 34°33' E 135°20'1 1.3
2018-Apr-10 22:30N 34°33' E 135°21'3 5.8
2018-Apr-10 22:00N 34°36' E 135°23'5 9.4
2018-Apr-10 21:31N 34°39' E 135°27'1 1.5
2018-Apr-10 21:01N 34°39' E 135°28'0 0.0
2018-Apr-10 20:30N 34°39' E 135°28'0 0.0
2018-Apr-10 20:00N 34°39' E 135°28'0 0.0
2018-Apr-10 19:30N 34°39' E 135°28'0 0.0
2018-Apr-10 19:01N 34°39' E 135°28'0 0.0
2018-Apr-10 18:31N 34°39' E 135°28'0 0.0
2018-Apr-10 18:00N 34°39' E 135°28'0 0.0
2018-Apr-10 17:30N 34°39' E 135°28'0 0.0
2018-Apr-10 16:55N 34°39' E 135°28'0 0.0
2018-Apr-10 16:30N 34°39' E 135°28'0 0.0
2018-Apr-10 15:59N 34°39' E 135°28'0 0.0
2018-Apr-10 15:30N 34°39' E 135°28'0 0.0
2018-Apr-10 15:00N 34°39' E 135°28'0 0.0
2018-Apr-10 14:30N 34°39' E 135°28'0 0.0
2018-Apr-10 14:01N 34°39' E 135°28'0 0.0
2018-Apr-10 13:31N 34°39' E 135°28'0 0.0
2018-Apr-10 13:00N 34°39' E 135°28'0 0.0
2018-Apr-10 12:26N 34°39' E 135°28'0 0.0
2018-Apr-10 12:00N 34°39' E 135°28'0 0.0
2018-Apr-10 11:30N 34°39' E 135°28'0 0.0
2018-Apr-10 11:01N 34°39' E 135°28'0 0.0
2018-Apr-10 10:30N 34°39' E 135°28'0 0.0
2018-Apr-10 10:00N 34°39' E 135°28'0 0.0
2018-Apr-10 09:30N 34°39' E 135°28'0 0.0
2018-Apr-10 09:01N 34°39' E 135°28'0 0.0
2018-Apr-10 08:30N 34°39' E 135°28'0 0.0
2018-Apr-10 08:01N 34°39' E 135°28'0 0.0
2018-Apr-10 07:31N 34°39' E 135°28'0 0.0
2018-Apr-10 07:00N 34°39' E 135°28'0 0.0
2018-Apr-10 06:31N 34°39' E 135°28'0 0.0
2018-Apr-10 06:00N 34°39' E 135°28'1 3.0
2018-Apr-10 05:30N 34°39' E 135°26'5 9.0
2018-Apr-10 04:59N 34°35' E 135°23'4 7.7
2018-Apr-10 04:30N 34°31' E 135°23'1 1.9
2018-Apr-10 04:00N 34°32' E 135°23'1 2.0
2018-Apr-10 03:30N 34°33' E 135°22'2 4.9
2018-Apr-10 03:00N 34°35' E 135°24'1 1.9
2018-Apr-10 02:30N 34°36' E 135°24'0 0.0
2018-Apr-10 02:00N 34°36' E 135°24'0 0.0
2018-Apr-10 01:31N 34°36' E 135°24'0 0.0
2018-Apr-10 01:00N 34°36' E 135°24'0 0.0
2018-Apr-10 00:30N 34°36' E 135°24'0 0.0
2018-Apr-10 00:00N 34°36' E 135°24'0 0.0
2018-Apr-09 23:30N 34°36' E 135°24'3 5.9
2018-Apr-09 23:00N 34°39' E 135°24'1 1.3
2018-Apr-09 22:30N 34°39' E 135°25'2 4.6
2018-Apr-09 22:00N 34°39' E 135°28'0 0.0
2018-Apr-09 21:30N 34°39' E 135°28'0 0.0
2018-Apr-09 21:00N 34°39' E 135°28'0 0.0
2018-Apr-09 20:30N 34°39' E 135°28'0 0.0
2018-Apr-09 20:00N 34°39' E 135°28'0 0.0
2018-Apr-09 19:30N 34°39' E 135°28'  

Dump ship's entire track history